createdAt,value
2017-01-02T00:00:20.292Z,0
2017-01-02T00:01:20.329Z,0
2017-01-02T00:02:20.726Z,0
2017-01-02T00:03:19.937Z,0
2017-01-02T00:04:20.340Z,0
2017-01-02T00:05:19.964Z,0
2017-01-02T00:06:19.959Z,0
2017-01-02T00:07:19.982Z,0
2017-01-02T00:08:19.988Z,0
2017-01-02T00:09:19.596Z,0
2017-01-02T00:10:20.007Z,0
2017-01-02T00:11:19.616Z,0
2017-01-02T00:12:20.831Z,0
2017-01-02T00:13:20.440Z,0
2017-01-02T00:14:20.449Z,0
2017-01-02T00:15:20.066Z,0
2017-01-02T00:16:20.075Z,0
2017-01-02T00:17:20.111Z,0
2017-01-02T00:18:20.101Z,0
2017-01-02T00:19:20.159Z,0
2017-01-02T00:20:19.723Z,0
2017-01-02T00:21:19.735Z,0
2017-01-02T00:22:20.552Z,0
2017-01-02T00:23:20.160Z,0
2017-01-02T00:24:20.976Z,0
2017-01-02T00:25:20.592Z,0
2017-01-02T00:26:20.192Z,0
2017-01-02T00:27:20.200Z,0
2017-01-02T00:28:20.612Z,0
2017-01-02T00:29:20.275Z,0
2017-01-02T00:30:20.635Z,0
2017-01-02T00:31:19.853Z,0
2017-01-02T00:32:20.664Z,0
2017-01-02T00:33:20.676Z,0
2017-01-02T00:34:20.285Z,0
2017-01-02T00:35:20.296Z,0
2017-01-02T00:36:20.720Z,0
2017-01-02T00:37:21.118Z,0
2017-01-02T00:38:20.333Z,0
2017-01-02T00:39:21.151Z,0
2017-01-02T00:40:20.754Z,0
2017-01-02T00:41:20.766Z,0
2017-01-02T00:42:21.180Z,0
2017-01-02T00:43:20.385Z,0
2017-01-02T00:44:20.407Z,0
2017-01-02T00:45:20.032Z,0
2017-01-02T00:46:20.419Z,0
2017-01-02T00:47:20.432Z,0
2017-01-02T00:48:20.043Z,0
2017-01-02T00:49:20.458Z,0
2017-01-02T00:50:20.470Z,0
2017-01-02T00:51:20.081Z,0
2017-01-02T00:52:21.292Z,0
2017-01-02T00:53:20.505Z,0
2017-01-02T00:54:20.117Z,0
2017-01-02T00:55:20.522Z,0
2017-01-02T00:56:20.540Z,0
2017-01-02T00:57:21.352Z,0
2017-01-02T00:58:20.556Z,0
2017-01-02T00:59:20.577Z,0
2017-01-02T01:00:20.583Z,0
2017-01-02T01:01:21.390Z,0
2017-01-02T01:02:20.206Z,0
2017-01-02T01:03:20.618Z,0
2017-01-02T01:04:20.643Z,0
2017-01-02T01:05:20.662Z,0
2017-01-02T01:06:21.044Z,0
2017-01-02T01:07:21.057Z,0
2017-01-02T01:08:20.668Z,0
2017-01-02T01:09:20.289Z,0
2017-01-02T01:10:20.690Z,0
2017-01-02T01:11:20.705Z,0
2017-01-02T01:12:20.730Z,0
2017-01-02T01:13:21.132Z,0
2017-01-02T01:14:21.135Z,0
2017-01-02T01:15:20.347Z,0
2017-01-02T01:16:21.155Z,0
2017-01-02T01:17:20.804Z,0
2017-01-02T01:18:20.788Z,0
2017-01-02T01:19:20.792Z,0
2017-01-02T01:20:20.807Z,0
2017-01-02T01:21:21.628Z,0
2017-01-02T01:22:20.822Z,0
2017-01-02T01:23:20.835Z,0
2017-01-02T01:24:21.243Z,0
2017-01-02T01:25:21.255Z,0
2017-01-02T01:26:20.865Z,0
2017-01-02T01:27:21.679Z,0
2017-01-02T01:28:21.692Z,0
2017-01-02T01:29:21.329Z,0
2017-01-02T01:30:20.908Z,0
2017-01-02T01:31:20.924Z,0
2017-01-02T01:32:20.931Z,0
2017-01-02T01:33:21.344Z,0
2017-01-02T01:34:21.351Z,0
2017-01-02T01:35:20.986Z,0
2017-01-02T01:36:21.013Z,0
2017-01-02T01:37:20.984Z,0
2017-01-02T01:38:20.996Z,0
2017-01-02T01:39:21.407Z,0
2017-01-02T01:40:21.015Z,0
2017-01-02T01:41:20.629Z,0
2017-01-02T01:42:21.043Z,0
2017-01-02T01:43:21.450Z,0
2017-01-02T01:44:21.457Z,0
2017-01-02T01:45:21.070Z,0
2017-01-02T01:46:21.078Z,0
2017-01-02T01:47:21.093Z,0
2017-01-02T01:48:20.701Z,0
2017-01-02T01:49:21.110Z,0
2017-01-02T01:50:21.126Z,0
2017-01-02T01:51:21.142Z,0
2017-01-02T01:52:21.540Z,0
2017-01-02T01:53:21.969Z,0
2017-01-02T01:54:21.565Z,0
2017-01-02T01:55:21.582Z,0
2017-01-02T01:56:21.983Z,0
2017-01-02T01:57:21.601Z,0
2017-01-02T01:58:21.203Z,0
2017-01-02T01:59:21.620Z,0
2017-01-02T02:00:21.625Z,0
2017-01-02T02:01:21.642Z,0
2017-01-02T02:02:20.852Z,0
2017-01-02T02:03:21.664Z,0
2017-01-02T02:04:21.668Z,0
2017-01-02T02:05:21.284Z,0
2017-01-02T02:06:21.692Z,0
2017-01-02T02:07:21.704Z,0
2017-01-02T02:08:22.112Z,0
2017-01-02T02:09:21.728Z,0
2017-01-02T02:10:21.337Z,0
2017-01-02T02:11:21.351Z,0
2017-01-02T02:12:22.161Z,0
2017-01-02T02:13:21.368Z,0
2017-01-02T02:14:21.774Z,0
2017-01-02T02:15:21.403Z,0
2017-01-02T02:16:21.407Z,0
2017-01-02T02:17:21.040Z,0
2017-01-02T02:18:21.845Z,0
2017-01-02T02:19:21.830Z,0
2017-01-02T02:20:21.448Z,0
2017-01-02T02:21:22.254Z,0
2017-01-02T02:22:21.064Z,0
2017-01-02T02:23:22.285Z,0
2017-01-02T02:24:21.494Z,0
2017-01-02T02:25:21.909Z,0
2017-01-02T02:26:21.517Z,0
2017-01-02T02:27:21.928Z,0
2017-01-02T02:28:21.540Z,0
2017-01-02T02:29:21.975Z,0
2017-01-02T02:30:21.153Z,0
2017-01-02T02:31:21.567Z,0
2017-01-02T02:32:21.975Z,0
2017-01-02T02:33:21.594Z,0
2017-01-02T02:34:22.395Z,0
2017-01-02T02:35:21.607Z,0
2017-01-02T02:36:22.415Z,0
2017-01-02T02:37:21.260Z,0
2017-01-02T02:38:22.047Z,0
2017-01-02T02:39:21.652Z,0
2017-01-02T02:40:21.660Z,0
2017-01-02T02:41:22.069Z,0
2017-01-02T02:42:22.095Z,0
2017-01-02T02:43:21.707Z,0
2017-01-02T02:44:21.703Z,0
2017-01-02T02:45:21.314Z,0
2017-01-02T02:46:21.949Z,0
2017-01-02T02:47:21.335Z,0
2017-01-02T02:48:22.547Z,0
2017-01-02T02:49:21.756Z,0
2017-01-02T02:50:21.769Z,0
2017-01-02T02:51:22.579Z,0
2017-01-02T02:52:21.406Z,0
2017-01-02T02:53:22.600Z,0
2017-01-02T02:54:22.615Z,0
2017-01-02T02:55:21.831Z,0
2017-01-02T02:56:21.838Z,0
2017-01-02T02:57:21.451Z,0
2017-01-02T02:58:21.459Z,0
2017-01-02T02:59:22.279Z,0
2017-01-02T03:00:21.914Z,0
2017-01-02T03:01:22.695Z,0
2017-01-02T03:02:22.705Z,0
2017-01-02T03:03:21.917Z,0
2017-01-02T03:04:22.328Z,0
2017-01-02T03:05:21.540Z,0
2017-01-02T03:06:21.556Z,0
2017-01-02T03:07:22.377Z,0
2017-01-02T03:08:21.589Z,0
2017-01-02T03:09:22.392Z,0
2017-01-02T03:10:21.994Z,0
2017-01-02T03:11:22.035Z,0
2017-01-02T03:12:22.022Z,0
2017-01-02T03:13:22.031Z,0
2017-01-02T03:14:22.047Z,0
2017-01-02T03:15:22.464Z,0
2017-01-02T03:16:22.468Z,0
2017-01-02T03:17:22.078Z,0
2017-01-02T03:18:22.490Z,0
2017-01-02T03:19:22.102Z,0
2017-01-02T03:20:22.113Z,0
2017-01-02T03:21:22.544Z,0
2017-01-02T03:22:22.536Z,0
2017-01-02T03:23:22.568Z,0
2017-01-02T03:24:22.555Z,0
2017-01-02T03:25:22.569Z,0
2017-01-02T03:26:22.978Z,0
2017-01-02T03:27:22.590Z,0
2017-01-02T03:28:22.206Z,0
2017-01-02T03:29:22.615Z,0
2017-01-02T03:30:22.224Z,0
2017-01-02T03:31:22.241Z,0
2017-01-02T03:32:22.641Z,0
2017-01-02T03:33:22.256Z,0
2017-01-02T03:34:22.665Z,0
2017-01-02T03:35:21.897Z,0
2017-01-02T03:36:22.689Z,0
2017-01-02T03:37:22.712Z,0
2017-01-02T03:38:23.114Z,0
2017-01-02T03:39:22.724Z,0
2017-01-02T03:40:22.341Z,0
2017-01-02T03:41:23.181Z,0
2017-01-02T03:42:22.763Z,0
2017-01-02T03:43:22.771Z,0
2017-01-02T03:44:22.376Z,0
2017-01-02T03:45:22.010Z,0
2017-01-02T03:46:22.799Z,0
2017-01-02T03:47:23.226Z,0
2017-01-02T03:48:22.826Z,0
2017-01-02T03:49:22.432Z,0
2017-01-02T03:50:22.845Z,0
2017-01-02T03:51:22.454Z,0
2017-01-02T03:52:22.890Z,0
2017-01-02T03:53:22.875Z,0
2017-01-02T03:54:22.088Z,0
2017-01-02T03:55:22.498Z,0
2017-01-02T03:56:22.910Z,0
2017-01-02T03:57:22.515Z,0
2017-01-02T03:58:23.330Z,0
2017-01-02T03:59:22.538Z,0
2017-01-02T04:00:22.963Z,0
2017-01-02T04:01:22.975Z,0
2017-01-02T04:02:22.608Z,0
2017-01-02T04:03:23.380Z,0
2017-01-02T04:04:22.593Z,0
2017-01-02T04:05:22.603Z,0
2017-01-02T04:06:23.013Z,0
2017-01-02T04:07:22.621Z,0
2017-01-02T04:08:23.042Z,0
2017-01-02T04:09:23.048Z,0
2017-01-02T04:10:23.053Z,0
2017-01-02T04:11:22.267Z,0
2017-01-02T04:12:23.096Z,0
2017-01-02T04:13:22.690Z,0
2017-01-02T04:14:22.695Z,0
2017-01-02T04:15:22.712Z,0
2017-01-02T04:16:23.538Z,0
2017-01-02T04:17:22.332Z,0
2017-01-02T04:18:22.739Z,0
2017-01-02T04:19:23.150Z,0
2017-01-02T04:20:22.360Z,0
2017-01-02T04:21:22.768Z,0
2017-01-02T04:22:23.184Z,0
2017-01-02T04:23:22.794Z,0
2017-01-02T04:24:23.631Z,0
2017-01-02T04:25:22.409Z,0
2017-01-02T04:26:22.823Z,0
2017-01-02T04:27:23.626Z,0
2017-01-02T04:28:23.242Z,0
2017-01-02T04:29:23.648Z,0
2017-01-02T04:30:23.266Z,0
2017-01-02T04:31:23.279Z,0
2017-01-02T04:32:23.691Z,0
2017-01-02T04:33:22.502Z,0
2017-01-02T04:34:23.332Z,0
2017-01-02T04:35:22.519Z,0
2017-01-02T04:36:22.524Z,0
2017-01-02T04:37:22.539Z,0
2017-01-02T04:38:23.749Z,0
2017-01-02T04:39:23.782Z,0
2017-01-02T04:40:22.967Z,0
2017-01-02T04:41:23.381Z,0
2017-01-02T04:42:22.984Z,0
2017-01-02T04:43:22.621Z,0
2017-01-02T04:44:23.012Z,0
2017-01-02T04:45:23.017Z,0
2017-01-02T04:46:23.442Z,0
2017-01-02T04:47:23.459Z,0
2017-01-02T04:48:23.453Z,0
2017-01-02T04:49:23.058Z,0
2017-01-02T04:50:23.868Z,0
2017-01-02T04:51:22.690Z,0
2017-01-02T04:52:23.089Z,0
2017-01-02T04:53:23.507Z,0
2017-01-02T04:54:23.110Z,0
2017-01-02T04:55:22.732Z,0
2017-01-02T04:56:22.755Z,0
2017-01-02T04:57:23.143Z,0
2017-01-02T04:58:23.147Z,0
2017-01-02T04:59:23.161Z,0
2017-01-02T05:00:23.603Z,0
2017-01-02T05:01:23.982Z,0
2017-01-02T05:02:23.591Z,0
2017-01-02T05:03:23.596Z,0
2017-01-02T05:04:24.007Z,0
2017-01-02T05:05:23.626Z,0
2017-01-02T05:06:23.630Z,0
2017-01-02T05:07:23.241Z,0
2017-01-02T05:08:23.250Z,0
2017-01-02T05:09:22.864Z,0
2017-01-02T05:10:24.064Z,0
2017-01-02T05:11:23.278Z,0
2017-01-02T05:12:23.314Z,0
2017-01-02T05:13:23.298Z,0
2017-01-02T05:14:23.308Z,0
2017-01-02T05:15:23.722Z,0
2017-01-02T05:16:22.928Z,0
2017-01-02T05:17:23.744Z,0
2017-01-02T05:18:23.345Z,0
2017-01-02T05:19:23.361Z,0
2017-01-02T05:20:23.373Z,0
2017-01-02T05:21:22.992Z,0
2017-01-02T05:22:23.388Z,0
2017-01-02T05:23:23.800Z,0
2017-01-02T05:24:23.411Z,0
2017-01-02T05:25:23.441Z,0
2017-01-02T05:26:23.450Z,0
2017-01-02T05:27:24.259Z,0
2017-01-02T05:28:23.853Z,0
2017-01-02T05:29:23.060Z,0
2017-01-02T05:30:23.870Z,0
2017-01-02T05:31:23.881Z,0
2017-01-02T05:32:24.305Z,0
2017-01-02T05:33:23.513Z,0
2017-01-02T05:34:23.906Z,0
2017-01-02T05:35:23.916Z,0
2017-01-02T05:36:23.528Z,0
2017-01-02T05:37:23.141Z,0
2017-01-02T05:38:23.542Z,0
2017-01-02T05:39:23.980Z,0
2017-01-02T05:40:23.964Z,0
2017-01-02T05:41:23.578Z,0
2017-01-02T05:42:23.588Z,0
2017-01-02T05:43:23.599Z,0
2017-01-02T05:44:24.011Z,0
2017-01-02T05:45:23.622Z,0
2017-01-02T05:46:23.635Z,0
2017-01-02T05:47:24.045Z,0
2017-01-02T05:48:24.446Z,0
2017-01-02T05:49:23.258Z,0
2017-01-02T05:50:24.080Z,0
2017-01-02T05:51:23.709Z,0
2017-01-02T05:52:23.687Z,0
2017-01-02T05:53:23.709Z,0
2017-01-02T05:54:23.709Z,0
2017-01-02T05:55:24.116Z,0
2017-01-02T05:56:24.130Z,0
2017-01-02T05:57:23.737Z,0
2017-01-02T05:58:24.543Z,0
2017-01-02T05:59:23.758Z,0
2017-01-02T06:00:24.579Z,0
2017-01-02T06:01:23.378Z,0
2017-01-02T06:02:23.798Z,0
2017-01-02T06:03:23.395Z,0
2017-01-02T06:04:23.804Z,0
2017-01-02T06:05:24.212Z,0
2017-01-02T06:06:24.223Z,0
2017-01-02T06:07:23.834Z,0
2017-01-02T06:08:23.448Z,0
2017-01-02T06:09:23.455Z,0
2017-01-02T06:10:24.281Z,0
2017-01-02T06:11:23.869Z,0
2017-01-02T06:12:23.886Z,0
2017-01-02T06:13:24.302Z,0
2017-01-02T06:14:24.709Z,0
2017-01-02T06:15:24.706Z,0
2017-01-02T06:16:24.322Z,0
2017-01-02T06:17:23.550Z,0
2017-01-02T06:18:23.561Z,0
2017-01-02T06:19:24.354Z,0
2017-01-02T06:20:23.961Z,0
2017-01-02T06:21:24.393Z,0
2017-01-02T06:22:24.386Z,0
2017-01-02T06:23:24.392Z,0
2017-01-02T06:24:24.414Z,0
2017-01-02T06:25:24.026Z,0
2017-01-02T06:26:24.036Z,0
2017-01-02T06:27:24.826Z,0
2017-01-02T06:28:24.439Z,0
2017-01-02T06:29:24.452Z,0
2017-01-02T06:30:24.092Z,0
2017-01-02T06:31:23.682Z,0
2017-01-02T06:32:24.092Z,0
2017-01-02T06:33:24.889Z,0
2017-01-02T06:34:24.496Z,0
2017-01-02T06:35:24.904Z,0
2017-01-02T06:36:24.116Z,4
2017-01-02T06:37:24.129Z,0
2017-01-02T06:38:24.143Z,0
2017-01-02T06:39:24.157Z,4
2017-01-02T06:40:24.160Z,4
2017-01-02T06:41:24.560Z,0
2017-01-02T06:42:24.579Z,4
2017-01-02T06:43:24.189Z,0
2017-01-02T06:44:24.596Z,4
2017-01-02T06:45:24.216Z,4
2017-01-02T06:46:24.610Z,8
2017-01-02T06:47:24.234Z,4
2017-01-02T06:48:24.259Z,4
2017-01-02T06:49:24.243Z,8
2017-01-02T06:50:24.650Z,8
2017-01-02T06:51:24.271Z,8
2017-01-02T06:52:24.273Z,8
2017-01-02T06:53:25.091Z,12
2017-01-02T06:54:24.712Z,16
2017-01-02T06:55:24.301Z,16
2017-01-02T06:56:24.747Z,16
2017-01-02T06:57:24.328Z,16
2017-01-02T06:58:24.732Z,20
2017-01-02T06:59:24.346Z,20
2017-01-02T07:00:24.754Z,24
2017-01-02T07:01:23.968Z,24
2017-01-02T07:02:24.380Z,28
2017-01-02T07:03:24.782Z,32
2017-01-02T07:04:24.387Z,36
2017-01-02T07:05:24.403Z,36
2017-01-02T07:06:24.017Z,40
2017-01-02T07:07:24.420Z,44
2017-01-02T07:08:24.843Z,44
2017-01-02T07:09:24.436Z,48
2017-01-02T07:10:24.849Z,52
2017-01-02T07:11:25.256Z,56
2017-01-02T07:12:25.267Z,60
2017-01-02T07:13:24.483Z,64
2017-01-02T07:14:24.890Z,68
2017-01-02T07:15:24.910Z,72
2017-01-02T07:16:24.909Z,76
2017-01-02T07:17:24.919Z,84
2017-01-02T07:18:24.530Z,88
2017-01-02T07:19:24.540Z,96
2017-01-02T07:20:24.952Z,104
2017-01-02T07:21:24.162Z,108
2017-01-02T07:22:24.569Z,112
2017-01-02T07:23:24.576Z,120
2017-01-02T07:24:25.012Z,124
2017-01-02T07:25:24.619Z,136
2017-01-02T07:26:25.403Z,140
2017-01-02T07:27:24.619Z,144
2017-01-02T07:28:25.037Z,152
2017-01-02T07:29:24.635Z,164
2017-01-02T07:30:25.047Z,168
2017-01-02T07:31:25.069Z,172
2017-01-02T07:32:25.083Z,188
2017-01-02T07:33:25.080Z,196
2017-01-02T07:34:24.290Z,212
2017-01-02T07:35:24.702Z,204
2017-01-02T07:36:25.508Z,216
2017-01-02T07:37:25.117Z,224
2017-01-02T07:38:24.729Z,236
2017-01-02T07:39:25.149Z,232
2017-01-02T07:40:25.156Z,236
2017-01-02T07:41:24.362Z,240
2017-01-02T07:42:24.805Z,248
2017-01-02T07:43:25.579Z,256
2017-01-02T07:44:24.392Z,264
2017-01-02T07:45:25.609Z,272
2017-01-02T07:46:25.222Z,284
2017-01-02T07:47:25.222Z,300
2017-01-02T07:48:24.435Z,308
2017-01-02T07:49:24.840Z,316
2017-01-02T07:50:25.257Z,320
2017-01-02T07:51:25.671Z,328
2017-01-02T07:52:24.874Z,340
2017-01-02T07:53:25.283Z,356
2017-01-02T07:54:25.297Z,364
2017-01-02T07:55:25.304Z,368
2017-01-02T07:56:24.915Z,376
2017-01-02T07:57:24.934Z,384
2017-01-02T07:58:24.936Z,388
2017-01-02T07:59:25.745Z,388
2017-01-02T08:00:24.560Z,396
2017-01-02T08:01:24.973Z,396
2017-01-02T08:02:25.781Z,396
2017-01-02T08:03:25.384Z,404
2017-01-02T08:04:25.400Z,416
2017-01-02T08:05:25.415Z,428
2017-01-02T08:06:25.419Z,440
2017-01-02T08:07:25.431Z,452
2017-01-02T08:08:25.435Z,460
2017-01-02T08:09:24.657Z,460
2017-01-02T08:10:25.465Z,464
2017-01-02T08:11:25.870Z,472
2017-01-02T08:12:25.879Z,484
2017-01-02T08:13:25.896Z,492
2017-01-02T08:14:25.102Z,512
2017-01-02T08:15:25.510Z,536
2017-01-02T08:16:25.124Z,552
2017-01-02T08:17:25.975Z,572
2017-01-02T08:18:25.557Z,584
2017-01-02T08:19:25.154Z,616
2017-01-02T08:20:24.766Z,636
2017-01-02T08:21:25.578Z,628
2017-01-02T08:22:25.592Z,644
2017-01-02T08:23:25.598Z,636
2017-01-02T08:24:25.241Z,648
2017-01-02T08:25:25.218Z,680
2017-01-02T08:26:25.235Z,692
2017-01-02T08:27:25.241Z,696
2017-01-02T08:28:25.648Z,744
2017-01-02T08:29:26.062Z,720
2017-01-02T08:30:25.268Z,728
2017-01-02T08:31:25.285Z,752
2017-01-02T08:32:26.092Z,740
2017-01-02T08:33:25.308Z,748
2017-01-02T08:34:25.315Z,708
2017-01-02T08:35:25.726Z,716
2017-01-02T08:36:25.335Z,740
2017-01-02T08:37:25.740Z,780
2017-01-02T08:38:25.368Z,860
2017-01-02T08:39:25.365Z,952
2017-01-02T08:40:26.174Z,1036
2017-01-02T08:41:25.400Z,1152
2017-01-02T08:42:25.795Z,1164
2017-01-02T08:43:25.411Z,1224
2017-01-02T08:44:25.824Z,964
2017-01-02T08:45:26.228Z,984
2017-01-02T08:46:25.838Z,880
2017-01-02T08:47:25.851Z,724
2017-01-02T08:48:26.271Z,616
2017-01-02T08:49:25.883Z,584
2017-01-02T08:50:25.486Z,544
2017-01-02T08:51:26.295Z,596
2017-01-02T08:52:25.908Z,596
2017-01-02T08:53:25.912Z,408
2017-01-02T08:54:25.530Z,432
2017-01-02T08:55:26.335Z,392
2017-01-02T08:56:25.580Z,364
2017-01-02T08:57:25.557Z,384
2017-01-02T08:58:25.970Z,472
2017-01-02T08:59:25.978Z,468
2017-01-02T09:00:25.593Z,408
2017-01-02T09:01:25.998Z,424
2017-01-02T09:02:26.015Z,456
2017-01-02T09:03:26.030Z,372
2017-01-02T09:04:25.633Z,356
2017-01-02T09:05:25.652Z,400
2017-01-02T09:06:26.070Z,332
2017-01-02T09:07:26.100Z,308
2017-01-02T09:08:25.295Z,320
2017-01-02T09:09:25.691Z,256
2017-01-02T09:10:26.506Z,268
2017-01-02T09:11:26.511Z,260
2017-01-02T09:12:25.325Z,252
2017-01-02T09:13:26.138Z,300
2017-01-02T09:14:26.141Z,312
2017-01-02T09:15:25.360Z,228
2017-01-02T09:16:26.562Z,236
2017-01-02T09:17:25.771Z,256
2017-01-02T09:18:25.783Z,296
2017-01-02T09:19:25.796Z,288
2017-01-02T09:20:26.608Z,288
2017-01-02T09:21:26.617Z,300
2017-01-02T09:22:25.427Z,256
2017-01-02T09:23:26.245Z,260
2017-01-02T09:24:25.847Z,296
2017-01-02T09:25:26.256Z,300
2017-01-02T09:26:25.871Z,304
2017-01-02T09:27:25.480Z,328
2017-01-02T09:28:25.894Z,284
2017-01-02T09:29:26.304Z,260
2017-01-02T09:30:25.516Z,268
2017-01-02T09:31:25.923Z,304
2017-01-02T09:32:25.964Z,296
2017-01-02T09:33:25.944Z,316
2017-01-02T09:34:25.958Z,320
2017-01-02T09:35:25.969Z,360
2017-01-02T09:36:26.779Z,392
2017-01-02T09:37:25.994Z,372
2017-01-02T09:38:26.010Z,360
2017-01-02T09:39:26.015Z,328
2017-01-02T09:40:25.629Z,320
2017-01-02T09:41:26.560Z,316
2017-01-02T09:42:26.045Z,368
2017-01-02T09:43:26.848Z,344
2017-01-02T09:44:26.069Z,324
2017-01-02T09:45:26.484Z,348
2017-01-02T09:46:25.688Z,340
2017-01-02T09:47:26.103Z,300
2017-01-02T09:48:26.108Z,304
2017-01-02T09:49:26.937Z,304
2017-01-02T09:50:26.131Z,300
2017-01-02T09:51:26.543Z,316
2017-01-02T09:52:26.556Z,356
2017-01-02T09:53:26.166Z,356
2017-01-02T09:54:26.212Z,344
2017-01-02T09:55:25.804Z,400
2017-01-02T09:56:26.347Z,404
2017-01-02T09:57:26.234Z,408
2017-01-02T09:58:26.622Z,352
2017-01-02T09:59:26.736Z,336
2017-01-02T10:00:26.246Z,328
2017-01-02T10:01:26.655Z,316
2017-01-02T10:02:26.270Z,312
2017-01-02T10:03:26.717Z,308
2017-01-02T10:04:25.901Z,348
2017-01-02T10:05:27.099Z,340
2017-01-02T10:06:27.144Z,344
2017-01-02T10:07:26.326Z,308
2017-01-02T10:08:26.758Z,300
2017-01-02T10:09:26.751Z,292
2017-01-02T10:10:26.372Z,288
2017-01-02T10:11:26.780Z,300
2017-01-02T10:12:26.383Z,280
2017-01-02T10:13:26.396Z,304
2017-01-02T10:14:26.477Z,300
2017-01-02T10:15:26.463Z,284
2017-01-02T10:16:26.430Z,284
2017-01-02T10:17:26.463Z,308
2017-01-02T10:18:26.053Z,312
2017-01-02T10:19:26.462Z,324
2017-01-02T10:20:26.877Z,308
2017-01-02T10:21:26.888Z,316
2017-01-02T10:22:26.097Z,388
2017-01-02T10:23:27.308Z,352
2017-01-02T10:24:27.341Z,312
2017-01-02T10:25:26.155Z,328
2017-01-02T10:26:26.948Z,328
2017-01-02T10:27:27.361Z,332
2017-01-02T10:28:26.575Z,320
2017-01-02T10:29:26.984Z,352
2017-01-02T10:30:26.193Z,328
2017-01-02T10:31:27.409Z,332
2017-01-02T10:32:27.425Z,328
2017-01-02T10:33:27.045Z,312
2017-01-02T10:34:26.643Z,304
2017-01-02T10:35:27.051Z,312
2017-01-02T10:36:26.666Z,292
2017-01-02T10:37:27.077Z,288
2017-01-02T10:38:27.490Z,292
2017-01-02T10:39:26.304Z,288
2017-01-02T10:40:26.715Z,252
2017-01-02T10:41:26.723Z,244
2017-01-02T10:42:27.139Z,264
2017-01-02T10:43:27.567Z,252
2017-01-02T10:44:27.158Z,236
2017-01-02T10:45:26.778Z,236
2017-01-02T10:46:26.787Z,236
2017-01-02T10:47:27.332Z,232
2017-01-02T10:48:27.212Z,228
2017-01-02T10:49:26.425Z,244
2017-01-02T10:50:27.233Z,268
2017-01-02T10:51:27.245Z,276
2017-01-02T10:52:26.863Z,240
2017-01-02T10:53:26.486Z,252
2017-01-02T10:54:27.678Z,228
2017-01-02T10:55:26.499Z,216
2017-01-02T10:56:27.699Z,212
2017-01-02T10:57:27.323Z,240
2017-01-02T10:58:26.931Z,256
2017-01-02T10:59:27.149Z,248
2017-01-02T11:00:27.765Z,248
2017-01-02T11:01:26.575Z,236
2017-01-02T11:02:26.979Z,228
2017-01-02T11:03:27.040Z,228
2017-01-02T11:04:27.456Z,228
2017-01-02T11:05:27.021Z,224
2017-01-02T11:06:26.657Z,212
2017-01-02T11:07:27.041Z,208
2017-01-02T11:08:27.054Z,200
2017-01-02T11:09:27.069Z,220
2017-01-02T11:10:27.478Z,200
2017-01-02T11:11:27.090Z,192
2017-01-02T11:12:27.512Z,212
2017-01-02T11:13:27.133Z,232
2017-01-02T11:14:27.134Z,224
2017-01-02T11:15:27.147Z,244
2017-01-02T11:16:27.553Z,252
2017-01-02T11:17:27.164Z,220
2017-01-02T11:18:27.181Z,236
2017-01-02T11:19:27.586Z,244
2017-01-02T11:20:27.602Z,224
2017-01-02T11:21:27.617Z,264
2017-01-02T11:22:27.227Z,264
2017-01-02T11:23:28.033Z,256
2017-01-02T11:24:26.864Z,276
2017-01-02T11:25:26.873Z,300
2017-01-02T11:26:27.274Z,348
2017-01-02T11:27:26.888Z,404
2017-01-02T11:28:27.701Z,488
2017-01-02T11:29:27.712Z,512
2017-01-02T11:30:28.122Z,500
2017-01-02T11:31:27.336Z,504
2017-01-02T11:32:27.758Z,480
2017-01-02T11:33:27.768Z,404
2017-01-02T11:34:27.387Z,336
2017-01-02T11:35:27.786Z,360
2017-01-02T11:36:27.806Z,408
2017-01-02T11:37:27.811Z,440
2017-01-02T11:38:27.424Z,520
2017-01-02T11:39:27.439Z,616
2017-01-02T11:40:27.884Z,568
2017-01-02T11:41:27.468Z,596
2017-01-02T11:42:27.871Z,1008
2017-01-02T11:43:28.306Z,1640
2017-01-02T11:44:28.296Z,1076
2017-01-02T11:45:28.315Z,956
2017-01-02T11:46:27.924Z,928
2017-01-02T11:47:27.541Z,1020
2017-01-02T11:48:27.948Z,860
2017-01-02T11:49:27.563Z,804
2017-01-02T11:50:27.176Z,836
2017-01-02T11:51:27.990Z,664
2017-01-02T11:52:27.611Z,596
2017-01-02T11:53:28.048Z,572
2017-01-02T11:54:27.645Z,544
2017-01-02T11:55:28.053Z,532
2017-01-02T11:56:28.064Z,544
2017-01-02T11:57:28.070Z,552
2017-01-02T11:58:27.277Z,544
2017-01-02T11:59:27.718Z,528
2017-01-02T12:00:28.105Z,508
2017-01-02T12:01:28.322Z,504
2017-01-02T12:02:28.536Z,488
2017-01-02T12:03:28.147Z,476
2017-01-02T12:04:27.762Z,504
2017-01-02T12:05:27.781Z,520
2017-01-02T12:06:28.585Z,580
2017-01-02T12:07:27.801Z,624
2017-01-02T12:08:28.241Z,660
2017-01-02T12:09:27.858Z,648
2017-01-02T12:10:27.446Z,684
2017-01-02T12:11:28.648Z,744
2017-01-02T12:12:27.864Z,716
2017-01-02T12:13:27.881Z,808
2017-01-02T12:14:28.319Z,692
2017-01-02T12:15:28.343Z,644
2017-01-02T12:16:28.323Z,596
2017-01-02T12:17:27.957Z,576
2017-01-02T12:18:27.950Z,560
2017-01-02T12:19:28.366Z,548
2017-01-02T12:20:28.389Z,512
2017-01-02T12:21:27.992Z,460
2017-01-02T12:22:28.402Z,428
2017-01-02T12:23:28.019Z,412
2017-01-02T12:24:28.430Z,416
2017-01-02T12:25:28.439Z,404
2017-01-02T12:26:28.456Z,356
2017-01-02T12:27:28.468Z,336
2017-01-02T12:28:28.487Z,352
2017-01-02T12:29:28.504Z,372
2017-01-02T12:30:28.113Z,376
2017-01-02T12:31:28.926Z,380
2017-01-02T12:32:28.539Z,336
2017-01-02T12:33:28.173Z,296
2017-01-02T12:34:28.620Z,296
2017-01-02T12:35:28.182Z,328
2017-01-02T12:36:28.196Z,368
2017-01-02T12:37:29.007Z,392
2017-01-02T12:38:28.622Z,408
2017-01-02T12:39:27.922Z,432
2017-01-02T12:40:28.652Z,468
2017-01-02T12:41:28.266Z,496
2017-01-02T12:42:28.277Z,512
2017-01-02T12:43:28.720Z,500
2017-01-02T12:44:28.709Z,484
2017-01-02T12:45:28.357Z,472
2017-01-02T12:46:28.344Z,464
2017-01-02T12:47:28.748Z,448
2017-01-02T12:48:29.178Z,436
2017-01-02T12:49:28.376Z,412
2017-01-02T12:50:28.401Z,396
2017-01-02T12:51:28.010Z,420
2017-01-02T12:52:28.817Z,436
2017-01-02T12:53:29.231Z,472
2017-01-02T12:54:29.247Z,540
2017-01-02T12:55:28.466Z,604
2017-01-02T12:56:28.486Z,644
2017-01-02T12:57:29.324Z,692
2017-01-02T12:58:28.906Z,792
2017-01-02T12:59:28.538Z,864
2017-01-02T13:00:28.956Z,892
2017-01-02T13:01:28.945Z,744
2017-01-02T13:02:28.968Z,664
2017-01-02T13:03:28.975Z,588
2017-01-02T13:04:28.591Z,536
2017-01-02T13:05:28.607Z,508
2017-01-02T13:06:28.619Z,500
2017-01-02T13:07:28.631Z,396
2017-01-02T13:08:29.444Z,312
2017-01-02T13:09:28.660Z,268
2017-01-02T13:10:29.073Z,248
2017-01-02T13:11:29.487Z,256
2017-01-02T13:12:28.743Z,260
2017-01-02T13:13:28.720Z,252
2017-01-02T13:14:28.333Z,240
2017-01-02T13:15:28.759Z,228
2017-01-02T13:16:28.765Z,216
2017-01-02T13:17:28.977Z,212
2017-01-02T13:18:29.215Z,220
2017-01-02T13:19:29.202Z,240
2017-01-02T13:20:28.818Z,264
2017-01-02T13:21:28.833Z,272
2017-01-02T13:22:28.851Z,236
2017-01-02T13:23:28.460Z,196
2017-01-02T13:24:28.484Z,180
2017-01-02T13:25:29.296Z,184
2017-01-02T13:26:43.409Z,172
2017-01-02T13:27:28.916Z,160
2017-01-02T13:28:29.745Z,152
2017-01-02T13:29:28.551Z,164
2017-01-02T13:30:28.982Z,164
2017-01-02T13:31:28.982Z,176
2017-01-02T13:32:28.587Z,176
2017-01-02T13:33:29.438Z,188
2017-01-02T13:34:29.813Z,176
2017-01-02T13:35:29.835Z,164
2017-01-02T13:36:29.445Z,144
2017-01-02T13:37:29.061Z,132
2017-01-02T13:38:29.874Z,128
2017-01-02T13:39:29.489Z,128
2017-01-02T13:40:29.505Z,136
2017-01-02T13:41:29.121Z,132
2017-01-02T13:42:29.130Z,124
2017-01-02T13:43:29.144Z,124
2017-01-02T13:44:29.561Z,124
2017-01-02T13:45:29.972Z,132
2017-01-02T13:46:29.583Z,136
2017-01-02T13:47:29.602Z,148
2017-01-02T13:48:29.619Z,164
2017-01-02T13:49:29.634Z,180
2017-01-02T13:50:29.240Z,188
2017-01-02T13:51:28.857Z,188
2017-01-02T13:52:29.670Z,192
2017-01-02T13:53:29.296Z,192
2017-01-02T13:54:28.905Z,204
2017-01-02T13:55:29.315Z,212
2017-01-02T13:56:30.122Z,216
2017-01-02T13:57:29.770Z,208
2017-01-02T13:58:29.755Z,200
2017-01-02T13:59:29.368Z,212
2017-01-02T14:00:29.788Z,208
2017-01-02T14:01:29.396Z,208
2017-01-02T14:02:29.809Z,228
2017-01-02T14:03:29.821Z,216
2017-01-02T14:04:29.837Z,196
2017-01-02T14:05:29.053Z,176
2017-01-02T14:06:30.263Z,144
2017-01-02T14:07:29.877Z,124
2017-01-02T14:08:29.897Z,104
2017-01-02T14:09:29.508Z,96
2017-01-02T14:10:29.922Z,92
2017-01-02T14:11:29.954Z,84
2017-01-02T14:12:29.968Z,84
2017-01-02T14:13:29.966Z,84
2017-01-02T14:14:29.627Z,80
2017-01-02T14:15:30.021Z,72